sensor_id;sensor_type;location;lat;lon;timestamp;pressure;altitude;pressure_sealevel;temperature;humidity
32933;BME280;19444;50.518;10.870;2023-12-20T00:01:43;96273.00;;;2.23;100.00
32933;BME280;19444;50.518;10.870;2023-12-20T00:04:40;96262.69;;;2.26;100.00
32933;BME280;19444;50.518;10.870;2023-12-20T00:07:37;96263.41;;;2.07;100.00
32933;BME280;19444;50.518;10.870;2023-12-20T00:10:34;96255.84;;;2.31;100.00
32933;BME280;19444;50.518;10.870;2023-12-20T00:13:31;96256.59;;;2.26;100.00
32933;BME280;19444;50.518;10.870;2023-12-20T00:16:28;96256.91;;;2.40;100.00
32933;BME280;19444;50.518;10.870;2023-12-20T00:19:25;96258.25;;;2.47;100.00
32933;BME280;19444;50.518;10.870;2023-12-20T00:22:22;96261.97;;;2.51;100.00
32933;BME280;19444;50.518;10.870;2023-12-20T00:25:19;96257.19;;;2.43;100.00
32933;BME280;19444;50.518;10.870;2023-12-20T00:28:16;96265.69;;;2.71;100.00
32933;BME280;19444;50.518;10.870;2023-12-20T00:31:13;96269.06;;;2.46;100.00
32933;BME280;19444;50.518;10.870;2023-12-20T00:34:10;96274.69;;;2.70;100.00
32933;BME280;19444;50.518;10.870;2023-12-20T00:37:07;96270.72;;;2.62;100.00
32933;BME280;19444;50.518;10.870;2023-12-20T00:40:05;96269.91;;;2.62;100.00
32933;BME280;19444;50.518;10.870;2023-12-20T00:43:02;96266.75;;;2.60;100.00
32933;BME280;19444;50.518;10.870;2023-12-20T00:45:59;96275.16;;;2.46;100.00
32933;BME280;19444;50.518;10.870;2023-12-20T00:48:57;96273.88;;;2.59;100.00
32933;BME280;19444;50.518;10.870;2023-12-20T00:51:53;96272.53;;;2.51;100.00
32933;BME280;19444;50.518;10.870;2023-12-20T00:54:50;96274.69;;;2.60;100.00
32933;BME280;19444;50.518;10.870;2023-12-20T00:57:48;96267.00;;;2.48;100.00
32933;BME280;19444;50.518;10.870;2023-12-20T01:00:45;96266.47;;;2.61;100.00
32933;BME280;19444;50.518;10.870;2023-12-20T01:03:42;96256.13;;;2.39;100.00
32933;BME280;19444;50.518;10.870;2023-12-20T01:06:39;96252.72;;;2.49;100.00
32933;BME280;19444;50.518;10.870;2023-12-20T01:09:36;96246.56;;;2.28;100.00
32933;BME280;19444;50.518;10.870;2023-12-20T01:12:33;96246.06;;;2.36;100.00
32933;BME280;19444;50.518;10.870;2023-12-20T01:15:30;96245.53;;;2.39;100.00
32933;BME280;19444;50.518;10.870;2023-12-20T01:18:27;96244.72;;;2.28;100.00
32933;BME280;19444;50.518;10.870;2023-12-20T01:21:24;96244.72;;;2.28;100.00
32933;BME280;19444;50.518;10.870;2023-12-20T01:24:21;96242.34;;;2.32;100.00
32933;BME280;19444;50.518;10.870;2023-12-20T01:27:18;96239.69;;;2.27;100.00
32933;BME280;19444;50.518;10.870;2023-12-20T01:30:15;96234.66;;;2.25;100.00
32933;BME280;19444;50.518;10.870;2023-12-20T01:33:12;96232.25;;;2.19;100.00
32933;BME280;19444;50.518;10.870;2023-12-20T01:36:09;96239.69;;;2.37;100.00
32933;BME280;19444;50.518;10.870;2023-12-20T01:39:06;96232.03;;;2.31;100.00
32933;BME280;19444;50.518;10.870;2023-12-20T01:42:20;96231.75;;;2.22;100.00
32933;BME280;19444;50.518;10.870;2023-12-20T01:45:18;96237.28;;;2.15;100.00
32933;BME280;19444;50.518;10.870;2023-12-20T01:48:16;96231.44;;;2.08;100.00
32933;BME280;19444;50.518;10.870;2023-12-20T01:51:14;96223.56;;;2.23;100.00
32933;BME280;19444;50.518;10.870;2023-12-20T01:54:11;96226.72;;;2.15;100.00
32933;BME280;19444;50.518;10.870;2023-12-20T01:57:09;96228.53;;;2.10;100.00
32933;BME280;19444;50.518;10.870;2023-12-20T02:00:07;96220.38;;;2.26;100.00
32933;BME280;19444;50.518;10.870;2023-12-20T02:03:06;96223.84;;;2.32;100.00
32933;BME280;19444;50.518;10.870;2023-12-20T02:06:04;96218.81;;;2.36;100.00
32933;BME280;19444;50.518;10.870;2023-12-20T02:09:01;96216.66;;;2.12;100.00
32933;BME280;19444;50.518;10.870;2023-12-20T02:11:59;96202.88;;;2.00;100.00
32933;BME280;19444;50.518;10.870;2023-12-20T02:14:56;96201.84;;;2.06;100.00
32933;BME280;19444;50.518;10.870;2023-12-20T02:17:53;96197.66;;;2.20;100.00
32933;BME280;19444;50.518;10.870;2023-12-20T02:20:51;96205.03;;;2.28;100.00
32933;BME280;19444;50.518;10.870;2023-12-20T02:23:47;96196.63;;;2.32;100.00
32933;BME280;19444;50.518;10.870;2023-12-20T02:26:44;96195.53;;;2.22;100.00
32933;BME280;19444;50.518;10.870;2023-12-20T02:29:43;96188.41;;;2.23;100.00
32933;BME280;19444;50.518;10.870;2023-12-20T02:32:40;96190.50;;;2.21;100.00
32933;BME280;19444;50.518;10.870;2023-12-20T02:35:36;96191.06;;;2.33;100.00
32933;BME280;19444;50.518;10.870;2023-12-20T02:38:33;96189.72;;;2.36;100.00
32933;BME280;19444;50.518;10.870;2023-12-20T02:41:30;96193.69;;;2.28;100.00
32933;BME280;19444;50.518;10.870;2023-12-20T02:44:27;96188.66;;;2.26;100.00
32933;BME280;19444;50.518;10.870;2023-12-20T02:47:24;96197.66;;;2.20;100.00
32933;BME280;19444;50.518;10.870;2023-12-20T02:50:21;96191.31;;;2.32;100.00
32933;BME280;19444;50.518;10.870;2023-12-20T02:53:18;96193.69;;;2.33;100.00
32933;BME280;19444;50.518;10.870;2023-12-20T02:56:15;96187.63;;;2.33;100.00
32933;BME280;19444;50.518;10.870;2023-12-20T02:59:12;96187.59;;;2.38;100.00
32933;BME280;19444;50.518;10.870;2023-12-20T03:02:09;96183.94;;;2.49;100.00
32933;BME280;19444;50.518;10.870;2023-12-20T03:05:06;96167.53;;;2.47;100.00
32933;BME280;19444;50.518;10.870;2023-12-20T03:08:04;96175.47;;;2.42;100.00
32933;BME280;19444;50.518;10.870;2023-12-20T03:11:01;96171.50;;;2.44;100.00
32933;BME280;19444;50.518;10.870;2023-12-20T03:13:58;96170.69;;;2.54;100.00
32933;BME280;19444;50.518;10.870;2023-12-20T03:16:55;96169.41;;;2.56;100.00
32933;BME280;19444;50.518;10.870;2023-12-20T03:19:53;96166.75;;;2.51;100.00
32933;BME280;19444;50.518;10.870;2023-12-20T03:22:50;96160.38;;;2.42;100.00
32933;BME280;19444;50.518;10.870;2023-12-20T03:25:47;96162.50;;;2.55;100.00
32933;BME280;19444;50.518;10.870;2023-12-20T03:28:44;96166.75;;;2.72;100.00
32933;BME280;19444;50.518;10.870;2023-12-20T03:31:41;96169.38;;;2.51;100.00
32933;BME280;19444;50.518;10.870;2023-12-20T03:34:38;96165.44;;;2.84;100.00
32933;BME280;19444;50.518;10.870;2023-12-20T03:37:36;96163.81;;;2.89;100.00
32933;BME280;19444;50.518;10.870;2023-12-20T03:40:33;96164.88;;;2.98;100.00
32933;BME280;19444;50.518;10.870;2023-12-20T03:43:30;96182.91;;;2.75;100.00
32933;BME280;19444;50.518;10.870;2023-12-20T03:46:26;96185.78;;;2.79;100.00
32933;BME280;19444;50.518;10.870;2023-12-20T03:49:23;96187.91;;;2.87;100.00
32933;BME280;19444;50.518;10.870;2023-12-20T03:52:20;96195.06;;;2.76;100.00
32933;BME280;19444;50.518;10.870;2023-12-20T03:55:17;96184.75;;;2.85;100.00
32933;BME280;19444;50.518;10.870;2023-12-20T03:58:15;96173.91;;;2.76;100.00
32933;BME280;19444;50.518;10.870;2023-12-20T04:01:12;96180.25;;;2.70;100.00
32933;BME280;19444;50.518;10.870;2023-12-20T04:04:09;96176.53;;;2.87;100.00
32933;BME280;19444;50.518;10.870;2023-12-20T04:07:06;96187.13;;;2.66;100.00
32933;BME280;19444;50.518;10.870;2023-12-20T04:10:04;96186.84;;;2.78;100.00
32933;BME280;19444;50.518;10.870;2023-12-20T04:13:01;96182.09;;;2.85;100.00
32933;BME280;19444;50.518;10.870;2023-12-20T04:15:57;96173.88;;;2.81;100.00
32933;BME280;19444;50.518;10.870;2023-12-20T04:18:54;96178.09;;;2.82;100.00
32933;BME280;19444;50.518;10.870;2023-12-20T04:21:51;96170.44;;;2.86;100.00
32933;BME280;19444;50.518;10.870;2023-12-20T04:24:49;96167.53;;;2.62;100.00
32933;BME280;19444;50.518;10.870;2023-12-20T04:27:45;96168.31;;;2.83;100.00
32933;BME280;19444;50.518;10.870;2023-12-20T04:30:43;96169.13;;;2.78;100.00
32933;BME280;19444;50.518;10.870;2023-12-20T04:33:40;96174.94;;;2.85;100.00
32933;BME280;19444;50.518;10.870;2023-12-20T04:36:37;96169.66;;;2.70;100.00
32933;BME280;19444;50.518;10.870;2023-12-20T04:39:34;96174.41;;;2.78;100.00
32933;BME280;19444;50.518;10.870;2023-12-20T04:42:31;96167.81;;;2.76;100.00
32933;BME280;19444;50.518;10.870;2023-12-20T04:45:28;96171.25;;;2.61;100.00
32933;BME280;19444;50.518;10.870;2023-12-20T04:48:24;96182.34;;;2.73;100.00
32933;BME280;19444;50.518;10.870;2023-12-20T04:51:21;96183.69;;;2.76;100.00
32933;BME280;19444;50.518;10.870;2023-12-20T04:54:18;96183.94;;;2.64;100.00
32933;BME280;19444;50.518;10.870;2023-12-20T04:57:15;96175.47;;;2.77;100.00
32933;BME280;19444;50.518;10.870;2023-12-20T05:00:12;96182.09;;;2.85;100.00
32933;BME280;19444;50.518;10.870;2023-12-20T05:03:12;96176.00;;;2.84;100.00
32933;BME280;19444;50.518;10.870;2023-12-20T05:06:10;96174.41;;;2.78;100.00
32933;BME280;19444;50.518;10.870;2023-12-20T05:09:07;96172.03;;;2.87;100.00
32933;BME280;19444;50.518;10.870;2023-12-20T05:12:04;96173.09;;;2.86;100.00
32933;BME280;19444;50.518;10.870;2023-12-20T05:15:02;96183.94;;;2.84;100.00
32933;BME280;19444;50.518;10.870;2023-12-20T05:17:59;96191.63;;;2.86;100.00
32933;BME280;19444;50.518;10.870;2023-12-20T05:20:56;96188.44;;;2.84;100.00
32933;BME280;19444;50.518;10.870;2023-12-20T05:23:55;96189.25;;;2.84;100.00
32933;BME280;19444;50.518;10.870;2023-12-20T05:26:52;96200.34;;;2.97;100.00
32933;BME280;19444;50.518;10.870;2023-12-20T05:29:49;96199.03;;;2.84;100.00
32933;BME280;19444;50.518;10.870;2023-12-20T05:32:47;96202.72;;;2.68;100.00
32933;BME280;19444;50.518;10.870;2023-12-20T05:35:44;96204.56;;;2.62;100.00
32933;BME280;19444;50.518;10.870;2023-12-20T05:38:41;96198.22;;;2.68;100.00
32933;BME280;19444;50.518;10.870;2023-12-20T05:41:38;96205.38;;;2.47;100.00
32933;BME280;19444;50.518;10.870;2023-12-20T05:44:35;96202.97;;;2.71;100.00
32933;BME280;19444;50.518;10.870;2023-12-20T05:47:33;96200.06;;;2.83;100.00
32933;BME280;19444;50.518;10.870;2023-12-20T05:50:30;96194.78;;;2.78;100.00
32933;BME280;19444;50.518;10.870;2023-12-20T05:53:27;96196.66;;;2.77;100.00
32933;BME280;19444;50.518;10.870;2023-12-20T05:56:24;96185.25;;;2.82;100.00
32933;BME280;19444;50.518;10.870;2023-12-20T05:59:21;96187.13;;;2.71;100.00
32933;BME280;19444;50.518;10.870;2023-12-20T06:02:18;96195.84;;;2.82;100.00
32933;BME280;19444;50.518;10.870;2023-12-20T06:05:14;96198.75;;;2.85;100.00
32933;BME280;19444;50.518;10.870;2023-12-20T06:08:11;96192.69;;;2.85;100.00
32933;BME280;19444;50.518;10.870;2023-12-20T06:11:09;96199.28;;;2.98;100.00
32933;BME280;19444;50.518;10.870;2023-12-20T06:14:06;96196.63;;;2.98;100.00
32933;BME280;19444;50.518;10.870;2023-12-20T06:17:03;96196.63;;;2.98;100.00
32933;BME280;19444;50.518;10.870;2023-12-20T06:20:00;96201.94;;;3.03;100.00
32933;BME280;19444;50.518;10.870;2023-12-20T06:22:57;96195.28;;;3.10;100.00
32933;BME280;19444;50.518;10.870;2023-12-20T06:25:54;96207.47;;;3.17;100.00
32933;BME280;19444;50.518;10.870;2023-12-20T06:28:51;96208.81;;;3.14;100.00
32933;BME280;19444;50.518;10.870;2023-12-20T06:31:48;96206.94;;;3.14;100.00
32933;BME280;19444;50.518;10.870;2023-12-20T06:34:45;96225.47;;;3.25;100.00
32933;BME280;19444;50.518;10.870;2023-12-20T06:37:42;96243.44;;;3.28;100.00
32933;BME280;19444;50.518;10.870;2023-12-20T06:40:40;96242.16;;;3.20;100.00
32933;BME280;19444;50.518;10.870;2023-12-20T06:43:37;96241.09;;;3.21;100.00
32933;BME280;19444;50.518;10.870;2023-12-20T06:46:45;96241.09;;;3.21;100.00
32933;BME280;19444;50.518;10.870;2023-12-20T06:49:42;96239.25;;;3.11;100.00
32933;BME280;19444;50.518;10.870;2023-12-20T06:52:39;96245.06;;;3.19;100.00
32933;BME280;19444;50.518;10.870;2023-12-20T06:55:37;96258.59;;;3.12;100.00
32933;BME280;19444;50.518;10.870;2023-12-20T06:58:34;96249.28;;;3.20;100.00
32933;BME280;19444;50.518;10.870;2023-12-20T07:01:33;96239.50;;;3.00;100.00
32933;BME280;19444;50.518;10.870;2023-12-20T07:04:30;96235.53;;;3.12;100.00
32933;BME280;19444;50.518;10.870;2023-12-20T07:07:27;96246.09;;;3.28;100.00
32933;BME280;19444;50.518;10.870;2023-12-20T07:10:24;96253.53;;;3.21;100.00
32933;BME280;19444;50.518;10.870;2023-12-20T07:13:21;96248.50;;;3.24;100.00
32933;BME280;19444;50.518;10.870;2023-12-20T07:16:19;96251.69;;;3.16;100.00
32933;BME280;19444;50.518;10.870;2023-12-20T07:19:16;96249.06;;;3.11;100.00
32933;BME280;19444;50.518;10.870;2023-12-20T07:22:13;96252.47;;;3.22;100.00
32933;BME280;19444;50.518;10.870;2023-12-20T07:25:10;96247.97;;;3.22;100.00
32933;BME280;19444;50.518;10.870;2023-12-20T07:28:07;96251.41;;;3.28;100.00
32933;BME280;19444;50.518;10.870;2023-12-20T07:31:04;96258.03;;;3.15;100.00
32933;BME280;19444;50.518;10.870;2023-12-20T07:34:01;96256.19;;;3.16;100.00
32933;BME280;19444;50.518;10.870;2023-12-20T07:36:58;96255.41;;;3.15;100.00
32933;BME280;19444;50.518;10.870;2023-12-20T07:39:56;96248.78;;;3.12;100.00
32933;BME280;19444;50.518;10.870;2023-12-20T07:42:52;96256.19;;;3.16;100.00
32933;BME280;19444;50.518;10.870;2023-12-20T07:45:49;96251.69;;;3.11;100.00
32933;BME280;19444;50.518;10.870;2023-12-20T07:48:46;96252.72;;;3.10;100.00
32933;BME280;19444;50.518;10.870;2023-12-20T07:51:43;96264.91;;;3.01;100.00
32933;BME280;19444;50.518;10.870;2023-12-20T07:54:40;96256.19;;;3.16;100.00
32933;BME280;19444;50.518;10.870;2023-12-20T07:57:37;96255.66;;;3.08;100.00
32933;BME280;19444;50.518;10.870;2023-12-20T08:00:34;96269.94;;;3.07;100.00
32933;BME280;19444;50.518;10.870;2023-12-20T08:03:31;96268.34;;;3.17;100.00
32933;BME280;19444;50.518;10.870;2023-12-20T08:06:28;96264.94;;;3.11;100.00
32933;BME280;19444;50.518;10.870;2023-12-20T08:09:25;96272.06;;;3.05;100.00
32933;BME280;19444;50.518;10.870;2023-12-20T08:12:22;96271.53;;;3.08;100.00
32933;BME280;19444;50.518;10.870;2023-12-20T08:15:19;96282.41;;;3.02;100.00
32933;BME280;19444;50.518;10.870;2023-12-20T08:18:16;96276.84;;;3.13;100.00
32933;BME280;19444;50.518;10.870;2023-12-20T08:21:13;96280.00;;;3.00;100.00
32933;BME280;19444;50.518;10.870;2023-12-20T08:24:12;96288.22;;;3.09;100.00
32933;BME280;19444;50.518;10.870;2023-12-20T08:27:10;96292.19;;;3.06;100.00
32933;BME280;19444;50.518;10.870;2023-12-20T08:30:08;96291.66;;;2.99;100.00
32933;BME280;19444;50.518;10.870;2023-12-20T08:33:06;96308.88;;;3.02;100.00
32933;BME280;19444;50.518;10.870;2023-12-20T08:36:08;96309.94;;;3.16;100.00
32933;BME280;19444;50.518;10.870;2023-12-20T08:39:05;96315.75;;;3.08;100.00
32933;BME280;19444;50.518;10.870;2023-12-20T08:42:04;96308.09;;;3.11;100.00
32933;BME280;19444;50.518;10.870;2023-12-20T08:45:01;96316.03;;;3.11;100.00
32933;BME280;19444;50.518;10.870;2023-12-20T08:48:01;96303.81;;;3.00;100.00
32933;BME280;19444;50.518;10.870;2023-12-20T08:51:00;96296.16;;;2.99;100.00
32933;BME280;19444;50.518;10.870;2023-12-20T08:53:57;96288.22;;;2.99;100.00
32933;BME280;19444;50.518;10.870;2023-12-20T08:56:54;96293.00;;;3.22;100.00
32933;BME280;19444;50.518;10.870;2023-12-20T08:59:51;96319.97;;;3.09;100.00
32933;BME280;19444;50.518;10.870;2023-12-20T09:02:48;96295.38;;;3.13;100.00
32933;BME280;19444;50.518;10.870;2023-12-20T09:05:45;96303.84;;;3.26;100.00
32933;BME280;19444;50.518;10.870;2023-12-20T09:08:42;96289.81;;;3.20;100.00
32933;BME280;19444;50.518;10.870;2023-12-20T09:11:39;96289.53;;;3.27;100.00
32933;BME280;19444;50.518;10.870;2023-12-20T09:14:36;96297.75;;;3.35;100.00
32933;BME280;19444;50.518;10.870;2023-12-20T09:17:33;96311.53;;;3.32;100.00
32933;BME280;19444;50.518;10.870;2023-12-20T09:20:30;96322.09;;;3.37;100.00
32933;BME280;19444;50.518;10.870;2023-12-20T09:23:28;96311.78;;;3.31;100.00
32933;BME280;19444;50.518;10.870;2023-12-20T09:26:25;96327.41;;;3.27;100.00
32933;BME280;19444;50.518;10.870;2023-12-20T09:29:22;96337.22;;;3.22;100.00
32933;BME280;19444;50.518;10.870;2023-12-20T09:32:19;96339.34;;;3.40;100.00
32933;BME280;19444;50.518;10.870;2023-12-20T09:35:19;96343.53;;;3.10;100.00
32933;BME280;19444;50.518;10.870;2023-12-20T09:38:16;96341.94;;;3.09;100.00
32933;BME280;19444;50.518;10.870;2023-12-20T09:41:15;96343.03;;;3.24;100.00
32933;BME280;19444;50.518;10.870;2023-12-20T09:44:16;96338.53;;;3.19;100.00
32933;BME280;19444;50.518;10.870;2023-12-20T09:47:20;96340.66;;;3.27;100.00
32933;BME280;19444;50.518;10.870;2023-12-20T09:50:21;96329.78;;;3.34;100.00
32933;BME280;19444;50.518;10.870;2023-12-20T09:53:20;96329.25;;;3.42;100.00
32933;BME280;19444;50.518;10.870;2023-12-20T09:56:18;96325.28;;;3.34;100.00
32933;BME280;19444;50.518;10.870;2023-12-20T09:59:15;96315.22;;;3.52;100.00
32933;BME280;19444;50.518;10.870;2023-12-20T10:02:13;96318.41;;;3.43;100.00
32933;BME280;19444;50.518;10.870;2023-12-20T10:05:17;96312.56;;;3.36;100.00
32933;BME280;19444;50.518;10.870;2023-12-20T10:08:17;96306.22;;;3.27;100.00
32933;BME280;19444;50.518;10.870;2023-12-20T10:11:18;96316.81;;;3.32;100.00
32933;BME280;19444;50.518;10.870;2023-12-20T10:14:16;96320.53;;;3.26;100.00
32933;BME280;19444;50.518;10.870;2023-12-20T10:17:13;96316.28;;;3.46;100.00
32933;BME280;19444;50.518;10.870;2023-12-20T10:20:10;96306.47;;;3.46;100.00
32933;BME280;19444;50.518;10.870;2023-12-20T10:23:07;96298.81;;;3.50;100.00
32933;BME280;19444;50.518;10.870;2023-12-20T10:26:04;96304.88;;;3.20;100.00
32933;BME280;19444;50.518;10.870;2023-12-20T10:29:01;96294.03;;;3.36;100.00
32933;BME280;19444;50.518;10.870;2023-12-20T10:32:22;96297.22;;;3.28;100.00
32933;BME280;19444;50.518;10.870;2023-12-20T10:35:21;96290.06;;;3.29;100.00
32933;BME280;19444;50.518;10.870;2023-12-20T10:38:17;96286.09;;;3.26;100.00
32933;BME280;19444;50.518;10.870;2023-12-20T10:41:15;96282.66;;;3.41;100.00
32933;BME280;19444;50.518;10.870;2023-12-20T10:44:14;96270.19;;;3.47;100.00
32933;BME280;19444;50.518;10.870;2023-12-20T10:47:13;96260.94;;;3.34;100.00
32933;BME280;19444;50.518;10.870;2023-12-20T10:50:10;96253.25;;;3.27;100.00
32933;BME280;19444;50.518;10.870;2023-12-20T10:53:07;96251.13;;;3.34;100.00
32933;BME280;19444;50.518;10.870;2023-12-20T10:56:06;96251.41;;;3.28;100.00
32933;BME280;19444;50.518;10.870;2023-12-20T10:59:05;96256.94;;;3.36;100.00
32933;BME280;19444;50.518;10.870;2023-12-20T11:02:04;96249.81;;;3.27;100.00
32933;BME280;19444;50.518;10.870;2023-12-20T11:05:36;96263.06;;;3.27;100.00
32933;BME280;19444;50.518;10.870;2023-12-20T11:08:51;96259.09;;;3.29;100.00
32933;BME280;19444;50.518;10.870;2023-12-20T11:12:06;96255.38;;;3.25;100.00
32933;BME280;19444;50.518;10.870;2023-12-20T11:15:07;96259.09;;;3.29;100.00
32933;BME280;19444;50.518;10.870;2023-12-20T11:18:05;96255.38;;;3.40;100.00
32933;BME280;19444;50.518;10.870;2023-12-20T11:21:05;96252.47;;;3.32;100.00
32933;BME280;19444;50.518;10.870;2023-12-20T11:24:03;96236.88;;;3.20;100.00
32933;BME280;19444;50.518;10.870;2023-12-20T11:27:01;96248.22;;;3.26;100.00
32933;BME280;19444;50.518;10.870;2023-12-20T11:29:59;96240.03;;;3.22;100.00
32933;BME280;19444;50.518;10.870;2023-12-20T11:32:57;96238.44;;;3.16;100.00
32933;BME280;19444;50.518;10.870;2023-12-20T11:35:58;96244.25;;;3.28;100.00
32933;BME280;19444;50.518;10.870;2023-12-20T11:38:57;96233.69;;;3.08;100.00
32933;BME280;19444;50.518;10.870;2023-12-20T11:41:56;96245.34;;;3.22;100.00
32933;BME280;19444;50.518;10.870;2023-12-20T11:44:56;96238.94;;;3.28;100.00
32933;BME280;19444;50.518;10.870;2023-12-20T11:47:53;96236.59;;;3.01;100.00
32933;BME280;19444;50.518;10.870;2023-12-20T11:50:51;96228.13;;;3.04;100.00
32933;BME280;19444;50.518;10.870;2023-12-20T11:53:52;96232.09;;;3.12;100.00
32933;BME280;19444;50.518;10.870;2023-12-20T11:56:49;96226.53;;;3.13;100.00
32933;BME280;19444;50.518;10.870;2023-12-20T11:59:47;96223.63;;;3.20;100.00
32933;BME280;19444;50.518;10.870;2023-12-20T12:02:54;96210.91;;;3.22;100.00
32933;BME280;19444;50.518;10.870;2023-12-20T12:05:51;96225.75;;;3.13;100.00
32933;BME280;19444;50.518;10.870;2023-12-20T12:08:48;96210.09;;;3.27;100.00
32933;BME280;19444;50.518;10.870;2023-12-20T12:11:45;96203.22;;;3.31;100.00
32933;BME280;19444;50.518;10.870;2023-12-20T12:14:42;96197.88;;;3.41;100.00
32933;BME280;19444;50.518;10.870;2023-12-20T12:17:40;96201.38;;;3.21;100.00
32933;BME280;19444;50.518;10.870;2023-12-20T12:20:38;96201.34;;;3.26;100.00
32933;BME280;19444;50.518;10.870;2023-12-20T12:23:35;96200.03;;;3.24;100.00
32933;BME280;19444;50.518;10.870;2023-12-20T12:26:32;96202.41;;;3.25;100.00
32933;BME280;19444;50.518;10.870;2023-12-20T12:29:29;96202.41;;;3.30;100.00
32933;BME280;19444;50.518;10.870;2023-12-20T12:32:27;96201.34;;;3.31;100.00
32933;BME280;19444;50.518;10.870;2023-12-20T12:35:24;96209.56;;;3.30;100.00
32933;BME280;19444;50.518;10.870;2023-12-20T12:38:23;96202.41;;;3.30;100.00
32933;BME280;19444;50.518;10.870;2023-12-20T12:41:20;96195.78;;;3.28;100.00
32933;BME280;19444;50.518;10.870;2023-12-20T12:44:18;96193.41;;;3.26;100.00
32933;BME280;19444;50.518;10.870;2023-12-20T12:47:15;96189.41;;;3.29;100.00
32933;BME280;19444;50.518;10.870;2023-12-20T12:50:12;96187.31;;;3.31;100.00
32933;BME280;19444;50.518;10.870;2023-12-20T12:53:10;96183.34;;;3.33;100.00
32933;BME280;19444;50.518;10.870;2023-12-20T12:56:07;96174.34;;;3.19;100.00
32933;BME280;19444;50.518;10.870;2023-12-20T12:59:04;96181.75;;;3.27;100.00
32933;BME280;19444;50.518;10.870;2023-12-20T13:02:04;96170.88;;;3.29;100.00
32933;BME280;19444;50.518;10.870;2023-12-20T13:05:01;96166.66;;;3.28;100.00
32933;BME280;19444;50.518;10.870;2023-12-20T13:07:59;96157.44;;;3.15;100.00
32933;BME280;19444;50.518;10.870;2023-12-20T13:10:56;96162.97;;;3.24;100.00
32933;BME280;19444;50.518;10.870;2023-12-20T13:13:57;96162.19;;;3.18;100.00
32933;BME280;19444;50.518;10.870;2023-12-20T13:16:56;96156.38;;;3.01;100.00
32933;BME280;19444;50.518;10.870;2023-12-20T13:19:53;96140.47;;;3.16;100.00
32933;BME280;19444;50.518;10.870;2023-12-20T13:22:50;96135.22;;;3.06;100.00
32933;BME280;19444;50.518;10.870;2023-12-20T13:25:47;96104.75;;;3.13;100.00
32933;BME280;19444;50.518;10.870;2023-12-20T13:28:44;96124.03;;;3.19;100.00
32933;BME280;19444;50.518;10.870;2023-12-20T13:31:41;96114.78;;;3.22;100.00
32933;BME280;19444;50.518;10.870;2023-12-20T13:34:38;96112.63;;;3.29;100.00
32933;BME280;19444;50.518;10.870;2023-12-20T13:37:35;96104.44;;;3.25;100.00
32933;BME280;19444;50.518;10.870;2023-12-20T13:40:33;96107.84;;;3.36;100.00
32933;BME280;19444;50.518;10.870;2023-12-20T13:43:31;96094.38;;;3.27;100.00
32933;BME280;19444;50.518;10.870;2023-12-20T13:46:29;96096.75;;;3.29;100.00
32933;BME280;19444;50.518;10.870;2023-12-20T13:49:26;96099.66;;;3.32;100.00
32933;BME280;19444;50.518;10.870;2023-12-20T13:52:24;96109.69;;;3.35;100.00
32933;BME280;19444;50.518;10.870;2023-12-20T13:55:21;96099.88;;;3.41;100.00
32933;BME280;19444;50.518;10.870;2023-12-20T13:58:21;96092.50;;;3.33;100.00
32933;BME280;19444;50.518;10.870;2023-12-20T14:01:18;96118.16;;;3.37;100.00
32933;BME280;19444;50.518;10.870;2023-12-20T14:04:16;96120.84;;;3.32;100.00
32933;BME280;19444;50.518;10.870;2023-12-20T14:07:33;96120.84;;;3.32;100.00
32933;BME280;19444;50.518;10.870;2023-12-20T14:10:29;96111.84;;;3.28;100.00
32933;BME280;19444;50.518;10.870;2023-12-20T14:13:27;96105.97;;;3.36;100.00
32933;BME280;19444;50.518;10.870;2023-12-20T14:16:24;96105.19;;;3.41;100.00
32933;BME280;19444;50.518;10.870;2023-12-20T14:19:21;96107.88;;;3.26;100.00
32933;BME280;19444;50.518;10.870;2023-12-20T14:22:18;96109.19;;;3.28;100.00
32933;BME280;19444;50.518;10.870;2023-12-20T14:25:15;96108.16;;;3.29;100.00
32933;BME280;19444;50.518;10.870;2023-12-20T14:28:12;96116.06;;;3.39;100.00
32933;BME280;19444;50.518;10.870;2023-12-20T14:31:11;96108.91;;;3.35;100.00
32933;BME280;19444;50.518;10.870;2023-12-20T14:34:09;96111.56;;;3.35;100.00
32933;BME280;19444;50.518;10.870;2023-12-20T14:37:06;96118.94;;;3.38;100.00
32933;BME280;19444;50.518;10.870;2023-12-20T14:40:03;96117.66;;;3.35;100.00
32933;BME280;19444;50.518;10.870;2023-12-20T14:43:00;96112.63;;;3.39;100.00
32933;BME280;19444;50.518;10.870;2023-12-20T14:45:58;96119.72;;;3.43;100.00
32933;BME280;19444;50.518;10.870;2023-12-20T14:48:55;96116.84;;;3.35;100.00
32933;BME280;19444;50.518;10.870;2023-12-20T14:51:52;96121.88;;;3.41;100.00
32933;BME280;19444;50.518;10.870;2023-12-20T14:54:49;96116.88;;;3.30;100.00
32933;BME280;19444;50.518;10.870;2023-12-20T14:57:47;96120.81;;;3.37;100.00
32933;BME280;19444;50.518;10.870;2023-12-20T15:00:44;96136.44;;;3.39;100.00
32933;BME280;19444;50.518;10.870;2023-12-20T15:03:41;96130.59;;;3.37;100.00
32933;BME280;19444;50.518;10.870;2023-12-20T15:06:39;96124.53;;;3.36;100.00
32933;BME280;19444;50.518;10.870;2023-12-20T15:09:36;96133.56;;;3.30;100.00
32933;BME280;19444;50.518;10.870;2023-12-20T15:12:33;96126.09;;;3.42;100.00
32933;BME280;19444;50.518;10.870;2023-12-20T15:15:31;96126.38;;;3.36;100.00
32933;BME280;19444;50.518;10.870;2023-12-20T15:18:31;96117.09;;;3.43;100.00
32933;BME280;19444;50.518;10.870;2023-12-20T15:21:28;96110.72;;;3.45;100.00
32933;BME280;19444;50.518;10.870;2023-12-20T15:24:30;96116.88;;;3.25;100.00
32933;BME280;19444;50.518;10.870;2023-12-20T15:27:35;96109.94;;;3.44;100.00
32933;BME280;19444;50.518;10.870;2023-12-20T15:30:34;96121.88;;;3.41;100.00